createdAt,value
2018-12-15T00:01:11.629Z,-1.30
2018-12-15T00:06:39.843Z,-1.20
2018-12-15T00:12:08.844Z,-1.30
2018-12-15T00:17:36.985Z,-1.30
2018-12-15T00:23:05.249Z,-1.30
2018-12-15T00:28:33.595Z,-1.30
2018-12-15T00:34:01.881Z,-1.40
2018-12-15T00:39:30.197Z,-1.40
2018-12-15T00:44:59.021Z,-1.40
2018-12-15T00:50:27.335Z,-1.40
2018-12-15T00:55:55.912Z,-1.50
2018-12-15T01:01:24.239Z,-1.50
2018-12-15T01:06:52.488Z,-1.40
2018-12-15T01:12:20.846Z,-1.40
2018-12-15T01:17:49.152Z,-1.40
2018-12-15T01:23:17.468Z,-1.40
2018-12-15T01:28:45.860Z,-1.40
2018-12-15T01:34:14.200Z,-1.40
2018-12-15T01:39:42.721Z,-1.40
2018-12-15T01:45:11.088Z,-1.40
2018-12-15T01:50:39.532Z,-1.40
2018-12-15T01:56:07.828Z,-1.40
2018-12-15T02:01:36.226Z,-1.40
2018-12-15T02:07:04.462Z,-1.40
2018-12-15T02:12:32.776Z,-1.30
2018-12-15T02:18:01.015Z,-1.30
2018-12-15T02:23:29.373Z,-1.40
2018-12-15T02:28:57.600Z,-1.40
2018-12-15T02:34:25.941Z,-1.40
2018-12-15T02:39:54.178Z,-1.30
2018-12-15T02:45:22.448Z,-1.30
2018-12-15T02:50:50.711Z,-1.30
2018-12-15T02:56:19.762Z,-1.30
2018-12-15T03:01:47.844Z,-1.30
2018-12-15T03:07:16.286Z,-1.30
2018-12-15T03:12:44.581Z,-1.30
2018-12-15T03:18:12.893Z,-1.40
2018-12-15T03:23:40.971Z,-1.30
2018-12-15T03:29:09.088Z,-1.30
2018-12-15T03:34:37.186Z,-1.30
2018-12-15T03:40:05.755Z,-1.40
2018-12-15T03:45:33.844Z,-1.30
2018-12-15T03:51:01.942Z,-1.30
2018-12-15T03:56:30.127Z,-1.30
2018-12-15T04:01:58.217Z,-1.20
2018-12-15T04:07:26.310Z,-1.20
2018-12-15T04:12:54.400Z,-1.20
2018-12-15T04:18:22.489Z,-1.20
2018-12-15T04:23:50.571Z,-1.20
2018-12-15T04:29:18.718Z,-1.20
2018-12-15T04:34:46.912Z,-1.20
2018-12-15T04:40:15.115Z,-1.20
2018-12-15T04:45:43.448Z,-1.20
2018-12-15T04:51:11.627Z,-1.10
2018-12-15T04:56:39.740Z,-1.10
2018-12-15T05:02:08.010Z,-1.10
2018-12-15T05:07:36.125Z,-1.10
2018-12-15T05:13:04.223Z,-1.10
2018-12-15T05:18:32.521Z,-1.10
2018-12-15T05:24:00.715Z,-1.10
2018-12-15T05:29:29.060Z,-1.10
2018-12-15T05:34:57.399Z,-1.10
2018-12-15T05:40:25.735Z,-1.20
2018-12-15T05:45:54.033Z,-1.20
2018-12-15T05:51:22.296Z,-1.10
2018-12-15T05:56:50.665Z,-1.10
2018-12-15T06:02:19.605Z,-1.10
2018-12-15T06:07:48.293Z,-1.10
2018-12-15T06:13:16.586Z,-1.20
2018-12-15T06:18:44.959Z,-1.20
2018-12-15T06:24:13.238Z,-1.20
2018-12-15T06:29:41.695Z,-1.30
2018-12-15T06:35:10.054Z,-1.30
2018-12-15T06:40:38.709Z,-1.20
2018-12-15T06:46:07.442Z,-1.30
2018-12-15T06:51:35.738Z,-1.30
2018-12-15T06:57:04.194Z,-1.20
2018-12-15T07:02:32.513Z,-1.20
2018-12-15T07:08:00.784Z,-1.30
2018-12-15T07:13:29.319Z,-1.30
2018-12-15T07:18:57.586Z,-1.30
2018-12-15T07:24:25.995Z,-1.40
2018-12-15T07:29:54.592Z,-1.30
2018-12-15T07:35:24.050Z,-1.30
2018-12-15T07:40:52.482Z,-1.40
2018-12-15T07:46:20.807Z,-1.30
2018-12-15T07:51:49.169Z,-1.30
2018-12-15T07:57:17.409Z,-1.30
2018-12-15T08:02:48.832Z,-1.30
2018-12-15T08:08:17.397Z,-1.30
2018-12-15T08:13:47.796Z,-1.20
2018-12-15T08:19:16.071Z,-1.10
2018-12-15T08:24:44.449Z,-1.10
2018-12-15T08:30:12.867Z,-1.10
2018-12-15T08:35:41.192Z,-1.10
2018-12-15T08:41:09.478Z,-1.10
2018-12-15T08:46:37.718Z,-1.10
2018-12-15T08:52:05.865Z,-1.00
2018-12-15T08:57:34.056Z,-1.10
2018-12-15T09:03:02.257Z,-1.00
2018-12-15T09:08:30.388Z,-1.00
2018-12-15T09:13:58.502Z,-1.00
2018-12-15T09:19:26.586Z,-1.00
2018-12-15T09:24:55.650Z,-1.00
2018-12-15T09:30:23.787Z,-1.00
2018-12-15T09:35:51.930Z,-1.00
2018-12-15T09:41:20.009Z,-1.00
2018-12-15T09:46:48.095Z,-1.00
2018-12-15T09:52:16.184Z,-1.00
2018-12-15T09:57:44.431Z,-1.00
2018-12-15T10:03:12.817Z,-1.00
2018-12-15T10:08:40.940Z,-1.00
2018-12-15T10:14:09.165Z,-1.00
2018-12-15T10:19:37.410Z,-1.00
2018-12-15T10:25:05.847Z,-0.90
2018-12-15T10:30:39.666Z,-0.90
2018-12-15T10:36:08.838Z,-0.90
2018-12-15T10:41:37.060Z,-0.90
2018-12-15T10:47:05.427Z,-0.90
2018-12-15T10:52:33.673Z,-0.90
2018-12-15T10:58:02.176Z,-0.90
2018-12-15T11:03:30.632Z,-0.90
2018-12-15T11:08:58.947Z,-0.80
2018-12-15T11:14:27.243Z,-0.70
2018-12-15T11:19:56.126Z,-0.70
2018-12-15T11:25:24.440Z,-0.80
2018-12-15T11:30:52.712Z,-0.70
2018-12-15T11:36:21.776Z,-0.70
2018-12-15T11:41:49.905Z,-0.70
2018-12-15T11:47:18.013Z,-0.80
2018-12-15T11:52:46.138Z,-0.70
2018-12-15T11:58:15.289Z,-0.70
2018-12-15T12:03:43.408Z,-0.70
2018-12-15T12:09:11.585Z,-0.70
2018-12-15T12:14:39.843Z,-0.70
2018-12-15T12:20:09.086Z,-0.80
2018-12-15T12:25:37.889Z,-0.70
2018-12-15T12:31:06.056Z,-0.70
2018-12-15T12:36:34.197Z,-0.70
2018-12-15T12:42:02.296Z,-0.60
2018-12-15T12:47:30.383Z,-0.60
2018-12-15T12:52:58.480Z,-0.60
2018-12-15T12:58:26.577Z,-0.60
2018-12-15T13:03:54.794Z,-0.60
2018-12-15T13:09:22.986Z,-0.50
2018-12-15T13:15:16.759Z,-0.40
2018-12-15T13:20:45.785Z,-0.50
2018-12-15T13:26:14.021Z,-0.50
2018-12-15T13:31:42.992Z,-0.50
2018-12-15T13:37:13.475Z,-0.50
2018-12-15T13:42:41.591Z,-0.50
2018-12-15T13:48:09.701Z,-0.60
2018-12-15T13:53:37.927Z,-0.70
2018-12-15T13:59:06.117Z,-0.80
2018-12-15T14:04:34.389Z,-0.90
2018-12-15T14:10:02.488Z,-1.00
2018-12-15T14:15:30.574Z,-1.00
2018-12-15T14:20:59.916Z,-1.00
2018-12-15T14:26:28.149Z,-0.90
2018-12-15T14:31:56.478Z,-0.90
2018-12-15T14:37:24.554Z,-0.90
2018-12-15T14:42:54.794Z,-0.90
2018-12-15T14:48:22.972Z,-0.90
2018-12-15T14:53:51.030Z,-0.90
2018-12-15T14:59:19.223Z,-1.00
2018-12-15T15:04:47.300Z,-1.00
2018-12-15T15:10:15.366Z,-1.00
2018-12-15T15:15:43.706Z,-1.00
2018-12-15T15:21:11.855Z,-1.10
2018-12-15T15:26:39.938Z,-1.10
2018-12-15T15:32:08.036Z,-1.10
2018-12-15T15:37:39.217Z,-1.10
2018-12-15T15:43:07.386Z,-1.10
2018-12-15T15:48:35.485Z,-1.10
2018-12-15T15:54:03.642Z,-1.10
2018-12-15T15:59:31.731Z,-1.10
2018-12-15T16:04:59.824Z,-1.20
2018-12-15T16:10:27.960Z,-1.20
2018-12-15T16:15:57.997Z,-1.20
2018-12-15T16:21:26.125Z,-1.20
2018-12-15T16:26:54.262Z,-1.20
2018-12-15T16:32:22.418Z,-1.10
2018-12-15T16:37:50.487Z,-1.00
2018-12-15T16:43:18.583Z,-1.00
2018-12-15T16:48:46.717Z,-1.00
2018-12-15T16:54:14.793Z,-1.00
2018-12-15T16:59:42.883Z,-1.00
2018-12-15T17:05:10.980Z,-1.00
2018-12-15T17:10:39.050Z,-1.10
2018-12-15T17:16:07.126Z,-1.10
2018-12-15T17:21:35.218Z,-1.10
2018-12-15T17:27:03.298Z,-1.20
2018-12-15T17:32:31.395Z,-1.20
2018-12-15T17:37:59.486Z,-1.10
2018-12-15T17:43:27.983Z,-1.10
2018-12-15T17:48:56.042Z,-1.20
2018-12-15T17:54:24.121Z,-1.20
2018-12-15T17:59:52.267Z,-1.20
2018-12-15T18:05:20.354Z,-1.20
2018-12-15T18:10:48.419Z,-1.20
2018-12-15T18:16:16.494Z,-1.20
2018-12-15T18:21:44.576Z,-1.30
2018-12-15T18:27:12.676Z,-1.30
2018-12-15T18:32:47.800Z,-1.40
2018-12-15T18:38:15.871Z,-1.40
2018-12-15T18:43:44.003Z,-1.40
2018-12-15T18:49:12.096Z,-1.50
2018-12-15T18:54:40.174Z,-1.60
2018-12-15T19:00:09.562Z,-1.60
2018-12-15T19:05:37.811Z,-1.60
2018-12-15T19:11:05.898Z,-1.70
2018-12-15T19:16:34.041Z,-1.80
2018-12-15T19:22:02.179Z,-1.90
2018-12-15T19:27:30.255Z,-2.00
2018-12-15T19:32:58.348Z,-2.10
2018-12-15T19:38:26.421Z,-2.20
2018-12-15T19:43:54.498Z,-2.30
2018-12-15T19:49:22.574Z,-2.40
2018-12-15T19:54:50.640Z,-2.50
2018-12-15T20:00:18.734Z,-2.60
2018-12-15T20:05:46.806Z,-2.70
2018-12-15T20:11:14.957Z,-2.70
2018-12-15T20:16:43.039Z,-2.80
2018-12-15T20:22:11.140Z,-2.90
2018-12-15T20:27:39.240Z,-2.90
2018-12-15T20:33:07.315Z,-3.00
2018-12-15T20:38:35.429Z,-3.10
2018-12-15T20:44:03.620Z,-3.10
2018-12-15T20:49:31.745Z,-3.20
2018-12-15T20:54:59.871Z,-3.30
2018-12-15T21:00:27.971Z,-3.30
2018-12-15T21:05:56.065Z,-3.40
2018-12-15T21:11:24.383Z,-3.50
2018-12-15T21:16:52.623Z,-3.50
2018-12-15T21:22:22.481Z,-3.60
2018-12-15T21:27:50.703Z,-3.70
2018-12-15T21:33:18.977Z,-3.80
2018-12-15T21:38:47.741Z,-3.80
2018-12-15T21:44:15.889Z,-3.80
2018-12-15T21:49:43.968Z,-3.90
2018-12-15T21:55:12.150Z,-4.00
2018-12-15T22:00:40.235Z,-4.00
2018-12-15T22:06:08.379Z,-4.10
2018-12-15T22:11:36.694Z,-4.10
2018-12-15T22:17:05.022Z,-4.20
2018-12-15T22:22:33.403Z,-4.20
2018-12-15T22:28:01.548Z,-4.30
2018-12-15T22:33:29.631Z,-4.40
2018-12-15T22:38:57.873Z,-4.50
2018-12-15T22:44:26.109Z,-4.50
2018-12-15T22:49:55.478Z,-4.60
2018-12-15T22:55:23.721Z,-4.60
2018-12-15T23:06:51.427Z,-4.80
2018-12-15T23:12:19.508Z,-4.80
2018-12-15T23:17:47.600Z,-4.90
2018-12-15T23:23:15.705Z,-4.90
2018-12-15T23:28:44.403Z,-4.90
2018-12-15T23:34:12.490Z,-5.00
2018-12-15T23:39:51.092Z,-5.00
2018-12-15T23:45:23.690Z,-5.10
2018-12-15T23:50:52.686Z,-5.10
2018-12-15T23:56:22.759Z,-5.10
